Time;durP1;ratioP1;P1;durP2;ratioP2;P2;SDS_P1;SDS_P2;PMS_P1;PMS_P2;Temp;Humidity;BMP_temperature;BMP_pressure;BME280_temperature;BME280_humidity;BME280_pressure;Samples;Min_cycle;Max_cycle;Signal;HPM_P1;HPM_P2
2023/12/27 00:00:30;;;;;;;6.20;1.40;;;;;;;;;;103825;1289;545541;-69
2023/12/27 00:04:28;;;;;;;6.30;1.30;;;;;;;;;;103594;1293;548010;-71
2023/12/27 00:08:07;;;;;;;4.80;0.90;;;;;;;;;;103935;1289;545336;-72
2023/12/27 00:11:23;;;;;;;4.40;1.20;;;;;;;;;;103459;1295;544913;-74
2023/12/27 00:15:00;;;;;;;4.80;1.30;;;;;;;;;;103856;1289;545526;-73
2023/12/27 00:18:38;;;;;;;3.20;0.90;;;;;;;;;;103697;1289;544858;-71
2023/12/27 00:22:15;;;;;;;5.30;0.90;;;;;;;;;;103288;1293;545601;-72
2023/12/27 00:25:53;;;;;;;5.30;0.90;;;;;;;;;;103587;1292;544908;-71
2023/12/27 00:29:30;;;;;;;2.70;0.80;;;;;;;;;;103617;1292;544690;-71
2023/12/27 00:33:07;;;;;;;3.80;0.80;;;;;;;;;;103473;1292;545071;-71
2023/12/27 00:36:45;;;;;;;4.60;1.00;;;;;;;;;;103522;1292;545121;-73
2023/12/27 00:40:23;;;;;;;4.70;0.90;;;;;;;;;;103455;1292;545487;-72
2023/12/27 00:44:00;;;;;;;5.30;0.80;;;;;;;;;;104122;1286;545135;-72
2023/12/27 00:47:38;;;;;;;3.60;0.90;;;;;;;;;;103512;1292;545637;-72
2023/12/27 00:51:21;;;;;;;3.30;0.70;;;;;;;;;;103581;1295;545565;-70
2023/12/27 00:55:12;;;;;;;3.60;0.90;;;;;;;;;;103606;1301;546462;-73
2023/12/27 00:58:30;;;;;;;4.60;0.90;;;;;;;;;;103681;1292;545025;-71
2023/12/27 01:02:08;;;;;;;3.90;0.90;;;;;;;;;;103501;1298;545265;-73
2023/12/27 01:05:45;;;;;;;4.20;0.80;;;;;;;;;;103917;1290;545644;-71
2023/12/27 01:09:22;;;;;;;3.90;0.90;;;;;;;;;;103843;1289;544849;-72
2023/12/27 01:12:59;;;;;;;4.50;1.00;;;;;;;;;;103474;1306;545672;-73
2023/12/27 01:16:37;;;;;;;3.90;0.90;;;;;;;;;;103700;1292;545686;-74
2023/12/27 01:20:15;;;;;;;3.50;0.90;;;;;;;;;;103481;1291;545164;-73
2023/12/27 01:23:52;;;;;;;4.30;1.20;;;;;;;;;;103588;1295;544917;-72
2023/12/27 01:27:29;;;;;;;3.90;0.90;;;;;;;;;;104116;1286;545219;-73
2023/12/27 01:31:08;;;;;;;2.70;0.90;;;;;;;;;;103555;1295;545163;-73
2023/12/27 01:34:44;;;;;;;7.70;1.10;;;;;;;;;;103492;1295;545596;-75
2023/12/27 01:38:22;;;;;;;4.20;0.90;;;;;;;;;;103613;1292;544820;-72
2023/12/27 01:41:59;;;;;;;3.80;1.10;;;;;;;;;;103696;1291;545201;-72
2023/12/27 01:45:37;;;;;;;5.30;1.00;;;;;;;;;;104018;1286;546387;-73
2023/12/27 01:49:14;;;;;;;5.30;0.90;;;;;;;;;;103511;1295;545409;-72
2023/12/27 01:52:52;;;;;;;4.60;1.10;;;;;;;;;;103881;1291;545167;-72
2023/12/27 01:56:29;;;;;;;4.80;1.10;;;;;;;;;;103771;1295;545883;-72
2023/12/27 02:00:08;;;;;;;4.90;1.20;;;;;;;;;;103533;1292;545120;-73
2023/12/27 02:03:44;;;;;;;4.90;0.90;;;;;;;;;;103617;1295;545270;-73
2023/12/27 02:07:21;;;;;;;5.10;0.80;;;;;;;;;;104731;1283;544937;-72
2023/12/27 02:11:00;;;;;;;4.00;0.70;;;;;;;;;;103854;1289;545686;-73
2023/12/27 02:14:37;;;;;;;4.70;0.90;;;;;;;;;;103758;1291;545072;-73
2023/12/27 02:18:14;;;;;;;3.10;0.70;;;;;;;;;;104136;1288;545695;-72
2023/12/27 02:21:52;;;;;;;4.00;0.80;;;;;;;;;;103716;1289;545855;-72
2023/12/27 02:25:29;;;;;;;5.00;0.80;;;;;;;;;;103742;1289;545542;-73
2023/12/27 02:29:07;;;;;;;4.00;0.60;;;;;;;;;;103665;1292;545375;-73
2023/12/27 02:32:43;;;;;;;4.60;0.80;;;;;;;;;;104032;1288;545047;-72
2023/12/27 02:36:22;;;;;;;4.20;0.70;;;;;;;;;;103747;1292;545573;-73
2023/12/27 02:40:02;;;;;;;5.90;0.90;;;;;;;;;;104021;1285;546421;-72
2023/12/27 02:43:36;;;;;;;4.70;0.80;;;;;;;;;;103966;1291;545001;-72
2023/12/27 02:47:13;;;;;;;6.10;0.90;;;;;;;;;;103872;1290;545022;-73
2023/12/27 02:50:51;;;;;;;4.00;0.70;;;;;;;;;;103683;1292;545961;-72
2023/12/27 02:54:28;;;;;;;5.70;0.90;;;;;;;;;;103777;1295;544887;-72
2023/12/27 02:58:06;;;;;;;5.50;0.90;;;;;;;;;;104037;1289;545455;-73
2023/12/27 03:01:43;;;;;;;6.10;0.80;;;;;;;;;;104021;1289;544841;-73
2023/12/27 03:05:24;;;;;;;5.60;0.80;;;;;;;;;;103446;1292;545098;-72
2023/12/27 03:08:58;;;;;;;5.10;0.70;;;;;;;;;;103665;1292;545082;-73
2023/12/27 03:12:36;;;;;;;6.20;1.00;;;;;;;;;;103391;1293;544924;-72
2023/12/27 03:16:17;;;;;;;4.70;0.90;;;;;;;;;;104287;1289;545856;-72
2023/12/27 03:19:51;;;;;;;7.70;1.20;;;;;;;;;;103536;1292;545084;-72
2023/12/27 03:23:28;;;;;;;5.00;0.70;;;;;;;;;;103726;1295;544864;-73
2023/12/27 03:27:06;;;;;;;5.90;1.00;;;;;;;;;;103746;1293;545872;-72
2023/12/27 03:30:43;;;;;;;4.30;0.80;;;;;;;;;;103773;1289;545295;-72
2023/12/27 03:34:21;;;;;;;6.70;1.20;;;;;;;;;;104204;1289;545552;-73
2023/12/27 03:37:58;;;;;;;6.60;1.10;;;;;;;;;;103822;1292;545064;-73
2023/12/27 03:41:36;;;;;;;5.50;0.90;;;;;;;;;;103873;1289;546324;-72
2023/12/27 03:45:19;;;;;;;5.40;1.00;;;;;;;;;;103467;1292;545144;-73
2023/12/27 03:48:51;;;;;;;7.70;1.00;;;;;;;;;;103584;1292;544990;-73
2023/12/27 03:52:28;;;;;;;8.10;1.20;;;;;;;;;;104003;1285;545133;-72
2023/12/27 03:56:10;;;;;;;6.10;1.10;;;;;;;;;;103718;1292;544952;-73
2023/12/27 03:59:42;;;;;;;9.20;1.20;;;;;;;;;;103969;1289;545084;-74
2023/12/27 04:03:17;;;;;;;6.50;1.00;;;;;;;;;;103806;1289;545283;-72
2023/12/27 04:06:58;;;;;;;7.70;1.00;;;;;;;;;;104116;1293;545111;-72
2023/12/27 04:10:36;;;;;;;5.80;1.20;;;;;;;;;;103906;1289;545098;-72
2023/12/27 04:14:17;;;;;;;9.30;1.40;;;;;;;;;;103527;1297;545196;-73
2023/12/27 04:17:50;;;;;;;6.90;1.00;;;;;;;;;;104069;1286;544835;-73
2023/12/27 04:21:27;;;;;;;6.20;1.00;;;;;;;;;;103622;1295;545054;-72
2023/12/27 04:25:05;;;;;;;7.60;1.10;;;;;;;;;;103924;1299;544891;-73
2023/12/27 04:28:42;;;;;;;6.20;1.40;;;;;;;;;;103517;1294;546082;-73
2023/12/27 04:32:20;;;;;;;6.30;1.20;;;;;;;;;;103728;1292;545382;-73
2023/12/27 04:35:57;;;;;;;7.70;1.40;;;;;;;;;;103749;1291;545964;-73
2023/12/27 04:39:35;;;;;;;7.40;1.20;;;;;;;;;;103555;1292;544850;-72
2023/12/27 04:43:14;;;;;;;6.20;1.00;;;;;;;;;;103584;1295;545189;-72
2023/12/27 04:46:50;;;;;;;7.50;1.10;;;;;;;;;;103809;1289;545428;-73
2023/12/27 04:50:27;;;;;;;7.00;1.10;;;;;;;;;;103598;1292;545567;-73
2023/12/27 04:54:05;;;;;;;7.00;1.10;;;;;;;;;;103772;1295;545157;-73
2023/12/27 04:57:42;;;;;;;6.40;1.10;;;;;;;;;;103785;1289;545058;-72
2023/12/27 05:01:20;;;;;;;9.50;1.20;;;;;;;;;;103637;1291;545152;-72
2023/12/27 05:04:53;;;;;;;6.90;1.20;;;;;;;;;;103882;1291;545307;-72
2023/12/27 05:08:35;;;;;;;6.70;1.00;;;;;;;;;;103671;1292;545874;-72
2023/12/27 05:12:12;;;;;;;7.00;1.00;;;;;;;;;;104172;1285;545507;-72
2023/12/27 05:15:50;;;;;;;10.30;1.20;;;;;;;;;;103847;1289;544817;-72
2023/12/27 05:19:26;;;;;;;8.40;1.20;;;;;;;;;;103534;1293;545060;-73
2023/12/27 05:23:01;;;;;;;7.00;1.00;;;;;;;;;;104234;1288;545058;-72
2023/12/27 05:26:42;;;;;;;5.60;1.00;;;;;;;;;;103834;1290;546279;-72
2023/12/27 05:30:20;;;;;;;6.70;1.10;;;;;;;;;;103509;1295;545446;-72
2023/12/27 05:33:56;;;;;;;6.30;1.10;;;;;;;;;;103622;1294;545085;-72
2023/12/27 05:37:34;;;;;;;10.70;1.40;;;;;;;;;;103780;1292;545043;-72
2023/12/27 05:41:12;;;;;;;7.40;1.20;;;;;;;;;;103551;1292;545211;-73
2023/12/27 05:44:49;;;;;;;6.60;1.10;;;;;;;;;;103593;1295;545911;-74
2023/12/27 05:48:22;;;;;;;9.00;1.50;;;;;;;;;;103837;1292;545383;-72
2023/12/27 05:52:04;;;;;;;7.70;1.30;;;;;;;;;;103634;1292;544810;-72
2023/12/27 05:55:42;;;;;;;8.80;1.20;;;;;;;;;;103649;1292;544819;-73
2023/12/27 05:59:19;;;;;;;9.60;1.20;;;;;;;;;;103534;1293;545134;-72
2023/12/27 06:02:56;;;;;;;6.60;1.20;;;;;;;;;;103593;1292;545152;-72
2023/12/27 06:06:34;;;;;;;7.60;1.40;;;;;;;;;;104086;1289;544823;-72
2023/12/27 06:10:11;;;;;;;6.70;1.20;;;;;;;;;;103670;1290;544912;-72
2023/12/27 06:13:49;;;;;;;10.70;1.90;;;;;;;;;;103736;1295;545648;-72
2023/12/27 06:17:26;;;;;;;7.80;1.40;;;;;;;;;;103825;1295;545659;-72
2023/12/27 06:21:04;;;;;;;8.40;1.40;;;;;;;;;;103832;1289;544880;-74
2023/12/27 06:24:41;;;;;;;8.90;1.40;;;;;;;;;;103550;1298;545950;-73
2023/12/27 06:28:19;;;;;;;8.70;1.20;;;;;;;;;;103486;1294;544830;-73
2023/12/27 06:31:52;;;;;;;7.70;1.30;;;;;;;;;;103801;1291;545209;-73
2023/12/27 06:35:53;;;;;;;8.40;1.90;;;;;;;;;;103613;1289;546396;-73
2023/12/27 06:39:11;;;;;;;9.30;1.80;;;;;;;;;;103669;1292;545059;-71
2023/12/27 06:42:49;;;;;;;11.20;1.80;;;;;;;;;;103993;1292;544912;-72
2023/12/27 06:46:27;;;;;;;9.90;1.40;;;;;;;;;;103678;1291;544865;-72
2023/12/27 06:50:03;;;;;;;8.40;1.70;;;;;;;;;;103643;1292;545529;-73
2023/12/27 06:53:41;;;;;;;7.20;1.60;;;;;;;;;;103479;1305;545676;-73
2023/12/27 06:57:19;;;;;;;8.90;1.40;;;;;;;;;;103382;1295;545560;-73
2023/12/27 07:00:56;;;;;;;10.50;1.80;;;;;;;;;;103650;1290;546098;-73
2023/12/27 07:04:33;;;;;;;10.10;1.70;;;;;;;;;;103504;1293;545379;-73
2023/12/27 07:08:11;;;;;;;7.50;1.50;;;;;;;;;;103541;1292;545003;-73
2023/12/27 07:11:49;;;;;;;9.40;1.70;;;;;;;;;;103880;1292;545571;-73
2023/12/27 07:15:22;;;;;;;7.70;1.60;;;;;;;;;;104184;1286;544979;-73
2023/12/27 07:19:03;;;;;;;13.30;1.60;;;;;;;;;;103493;1291;545053;-73
2023/12/27 07:22:41;;;;;;;9.70;1.60;;;;;;;;;;103539;1298;545066;-72
2023/12/27 07:26:19;;;;;;;6.90;1.60;;;;;;;;;;103816;1289;545156;-73
2023/12/27 07:29:55;;;;;;;9.90;2.20;;;;;;;;;;103701;1291;544796;-73
2023/12/27 07:33:39;;;;;;;13.00;4.00;;;;;;;;;;103984;1286;545176;-73
2023/12/27 07:37:10;;;;;;;25.80;7.00;;;;;;;;;;103520;1292;544898;-73
2023/12/27 07:40:48;;;;;;;20.10;5.90;;;;;;;;;;103908;1292;545189;-74
2023/12/27 07:44:26;;;;;;;15.00;2.90;;;;;;;;;;103968;1289;544816;-72
2023/12/27 07:48:03;;;;;;;8.30;2.30;;;;;;;;;;103512;1294;544962;-73
2023/12/27 07:51:40;;;;;;;10.30;2.30;;;;;;;;;;103564;1295;545164;-73
2023/12/27 07:55:18;;;;;;;10.10;2.30;;;;;;;;;;104198;1286;545170;-73
2023/12/27 07:58:51;;;;;;;11.00;2.10;;;;;;;;;;103819;1292;545635;-73
2023/12/27 08:02:33;;;;;;;8.50;2.00;;;;;;;;;;103652;1295;545185;-73
2023/12/27 08:06:10;;;;;;;7.60;1.70;;;;;;;;;;103976;1289;545068;-75
2023/12/27 08:09:48;;;;;;;7.90;2.10;;;;;;;;;;103495;1291;545053;-73
2023/12/27 08:13:25;;;;;;;11.80;3.10;;;;;;;;;;103740;1292;545074;-74
2023/12/27 08:17:03;;;;;;;11.00;3.00;;;;;;;;;;103763;1291;545665;-74
2023/12/27 08:20:40;;;;;;;8.30;2.10;;;;;;;;;;103654;1292;545646;-74
2023/12/27 08:24:17;;;;;;;10.70;2.20;;;;;;;;;;103607;1292;545648;-73
2023/12/27 08:27:55;;;;;;;9.60;2.10;;;;;;;;;;103916;1289;544998;-74
2023/12/27 08:31:33;;;;;;;7.60;1.90;;;;;;;;;;103717;1295;545563;-73
2023/12/27 08:35:09;;;;;;;8.70;1.80;;;;;;;;;;103683;1292;545142;-73
2023/12/27 08:38:47;;;;;;;9.30;2.10;;;;;;;;;;103553;1292;545237;-73
2023/12/27 08:42:24;;;;;;;9.50;2.10;;;;;;;;;;103525;1292;544849;-73
2023/12/27 08:46:03;;;;;;;8.70;1.70;;;;;;;;;;103937;1289;545072;-73
2023/12/27 08:49:40;;;;;;;9.90;1.80;;;;;;;;;;103528;1292;545053;-73
2023/12/27 08:53:17;;;;;;;10.10;1.80;;;;;;;;;;103607;1291;545176;-74
2023/12/27 08:56:55;;;;;;;9.40;2.40;;;;;;;;;;103492;1295;545516;-73
2023/12/27 09:00:32;;;;;;;11.30;2.40;;;;;;;;;;103717;1292;544842;-73
2023/12/27 09:04:10;;;;;;;9.80;2.20;;;;;;;;;;103851;1289;546240;-73
2023/12/27 09:07:47;;;;;;;13.10;3.20;;;;;;;;;;103530;1292;545038;-71
2023/12/27 09:11:24;;;;;;;12.40;4.00;;;;;;;;;;103580;1297;545181;-74
2023/12/27 09:15:02;;;;;;;11.90;4.20;;;;;;;;;;103851;1290;544900;-72
2023/12/27 09:18:39;;;;;;;38.80;15.40;;;;;;;;;;103711;1291;545546;-71
2023/12/27 09:22:17;;;;;;;30.40;13.80;;;;;;;;;;103633;1305;545176;-71
2023/12/27 09:25:54;;;;;;;22.60;10.00;;;;;;;;;;104174;1289;545086;-73
2023/12/27 09:29:34;;;;;;;9.30;2.80;;;;;;;;;;103315;1291;545081;-74
2023/12/27 09:33:09;;;;;;;10.30;3.00;;;;;;;;;;103607;1305;545707;-73
2023/12/27 09:36:46;;;;;;;10.20;2.60;;;;;;;;;;103891;1289;544911;-73
2023/12/27 09:40:21;;;;;;;10.90;3.20;;;;;;;;;;103775;1289;544876;-74
2023/12/27 09:43:58;;;;;;;8.90;1.80;;;;;;;;;;103796;1291;544876;-74
2023/12/27 09:47:40;;;;;;;9.30;2.50;;;;;;;;;;103586;1295;545162;-73
2023/12/27 09:51:23;;;;;;;11.60;2.30;;;;;;;;;;104276;1282;547193;-73
2023/12/27 09:54:54;;;;;;;14.00;2.30;;;;;;;;;;103775;1289;545207;-74
2023/12/27 09:58:32;;;;;;;11.90;2.50;;;;;;;;;;103612;1292;545132;-72
2023/12/27 10:02:13;;;;;;;11.60;2.90;;;;;;;;;;103659;1292;544864;-73
2023/12/27 10:05:54;;;;;;;9.90;2.80;;;;;;;;;;103845;1289;545095;-73
2023/12/27 10:09:23;;;;;;;11.50;2.70;;;;;;;;;;103599;1293;545065;-71
2023/12/27 10:13:02;;;;;;;10.40;1.90;;;;;;;;;;103565;1296;544875;-70
2023/12/27 10:16:39;;;;;;;11.70;2.40;;;;;;;;;;103761;1292;545938;-73
2023/12/27 10:20:30;;;;;;;12.50;3.20;;;;;;;;;;103609;1292;545013;-71
2023/12/27 10:23:54;;;;;;;14.60;2.90;;;;;;;;;;104277;1288;546746;-73
2023/12/27 10:27:28;;;;;;;11.20;2.90;;;;;;;;;;103913;1291;544803;-71
2023/12/27 10:31:09;;;;;;;9.20;2.20;;;;;;;;;;103831;1289;544919;-72
2023/12/27 10:34:43;;;;;;;11.10;2.50;;;;;;;;;;103840;1292;545047;-72
2023/12/27 10:38:20;;;;;;;8.40;1.90;;;;;;;;;;104052;1288;544690;-71
2023/12/27 10:42:01;;;;;;;9.10;2.10;;;;;;;;;;103525;1293;544858;-71
2023/12/27 10:45:38;;;;;;;9.00;2.00;;;;;;;;;;103824;1290;545009;-71
2023/12/27 10:49:17;;;;;;;9.60;2.10;;;;;;;;;;103744;1289;544958;-74
2023/12/27 10:52:56;;;;;;;8.20;1.90;;;;;;;;;;104137;1289;545120;-72
2023/12/27 10:56:34;;;;;;;7.30;2.00;;;;;;;;;;103783;1296;545587;-71
2023/12/27 11:00:10;;;;;;;12.30;2.70;;;;;;;;;;104084;1286;545067;-71
2023/12/27 11:03:47;;;;;;;10.50;3.20;;;;;;;;;;105513;1291;544795;-72
2023/12/27 11:07:25;;;;;;;10.60;2.90;;;;;;;;;;104098;1286;544937;-71
2023/12/27 11:11:03;;;;;;;12.00;2.90;;;;;;;;;;103616;1291;546161;-72
2023/12/27 11:14:39;;;;;;;12.60;3.80;;;;;;;;;;103585;1292;544860;-71
2023/12/27 11:18:18;;;;;;;12.40;3.60;;;;;;;;;;103595;1294;545475;-73
2023/12/27 11:21:53;;;;;;;13.90;3.00;;;;;;;;;;104024;1292;545472;-72
2023/12/27 11:25:31;;;;;;;11.90;3.80;;;;;;;;;;103722;1292;544975;-73
2023/12/27 11:29:11;;;;;;;15.60;5.30;;;;;;;;;;104023;1289;545085;-71
2023/12/27 11:32:46;;;;;;;11.20;3.90;;;;;;;;;;103781;1295;544884;-70
2023/12/27 11:36:25;;;;;;;14.10;4.50;;;;;;;;;;103951;1290;545695;-72
2023/12/27 11:40:01;;;;;;;15.20;5.10;;;;;;;;;;103774;1289;545335;-70
2023/12/27 11:44:07;;;;;;;17.10;6.30;;;;;;;;;;103664;1295;545120;-71
2023/12/27 11:47:16;;;;;;;18.80;7.30;;;;;;;;;;103820;1292;545008;-72
2023/12/27 11:50:53;;;;;;;11.40;3.90;;;;;;;;;;103742;1292;545414;-71
2023/12/27 11:54:31;;;;;;;11.80;3.60;;;;;;;;;;103578;1297;545074;-71
2023/12/27 11:58:08;;;;;;;13.40;3.50;;;;;;;;;;103840;1289;545630;-71
2023/12/27 12:01:46;;;;;;;10.40;4.40;;;;;;;;;;103675;1292;544851;-70
2023/12/27 12:05:32;;;;;;;9.80;2.80;;;;;;;;;;103558;1297;544947;-71
2023/12/27 12:09:01;;;;;;;12.10;3.50;;;;;;;;;;104049;1286;544942;-71
2023/12/27 12:12:37;;;;;;;9.30;2.60;;;;;;;;;;103399;1294;545935;-71
2023/12/27 12:16:21;;;;;;;10.80;3.20;;;;;;;;;;103558;1297;544887;-70
2023/12/27 12:19:52;;;;;;;9.80;3.30;;;;;;;;;;104305;1286;545510;-71
2023/12/27 12:23:31;;;;;;;9.50;2.70;;;;;;;;;;103640;1292;545552;-73
2023/12/27 12:27:07;;;;;;;8.30;2.70;;;;;;;;;;103805;1289;545096;-73
2023/12/27 12:30:46;;;;;;;9.60;2.40;;;;;;;;;;103599;1291;544975;-72
2023/12/27 12:34:23;;;;;;;10.40;2.20;;;;;;;;;;103544;1293;545517;-71
2023/12/27 12:38:00;;;;;;;11.50;3.30;;;;;;;;;;103784;1298;545333;-70
2023/12/27 12:41:37;;;;;;;8.20;2.00;;;;;;;;;;103574;1293;544959;-72
2023/12/27 12:45:15;;;;;;;8.40;2.20;;;;;;;;;;103792;1295;545094;-70
2023/12/27 12:48:52;;;;;;;10.00;2.50;;;;;;;;;;103760;1291;545857;-71
2023/12/27 12:52:33;;;;;;;11.90;3.60;;;;;;;;;;103678;1291;545107;-70
2023/12/27 12:56:06;;;;;;;13.90;4.00;;;;;;;;;;103915;1292;544891;-70
2023/12/27 12:59:48;;;;;;;12.20;4.40;;;;;;;;;;103574;1292;545403;-70
2023/12/27 13:03:25;;;;;;;12.70;4.10;;;;;;;;;;103606;1295;545148;-70
2023/12/27 13:07:03;;;;;;;13.80;5.00;;;;;;;;;;103628;1293;544917;-71
2023/12/27 13:10:38;;;;;;;13.20;4.60;;;;;;;;;;103764;1289;545018;-71
2023/12/27 13:14:16;;;;;;;20.10;10.50;;;;;;;;;;103980;1295;545492;-72
2023/12/27 13:17:53;;;;;;;13.10;7.10;;;;;;;;;;103590;1292;545347;-70
2023/12/27 13:21:31;;;;;;;11.90;5.80;;;;;;;;;;103621;1294;545262;-70
2023/12/27 13:25:12;;;;;;;14.50;5.30;;;;;;;;;;103737;1294;545063;-70
2023/12/27 13:28:46;;;;;;;14.30;6.00;;;;;;;;;;103465;1294;545032;-70
2023/12/27 13:32:19;;;;;;;15.70;6.70;;;;;;;;;;103714;1294;544971;-73
2023/12/27 13:36:00;;;;;;;14.10;6.90;;;;;;;;;;103748;1290;545176;-73
2023/12/27 13:39:38;;;;;;;15.00;6.90;;;;;;;;;;103586;1293;545623;-72
2023/12/27 13:43:16;;;;;;;14.30;7.40;;;;;;;;;;103875;1292;545352;-72
2023/12/27 13:46:53;;;;;;;16.50;7.40;;;;;;;;;;104475;1287;545102;-71
2023/12/27 13:50:31;;;;;;;17.90;8.50;;;;;;;;;;103572;1291;545079;-73
2023/12/27 13:54:08;;;;;;;18.50;8.90;;;;;;;;;;104072;1286;544872;-73
2023/12/27 13:57:49;;;;;;;27.40;12.70;;;;;;;;;;104124;1286;545342;-73
2023/12/27 14:01:23;;;;;;;25.10;12.50;;;;;;;;;;103714;1298;544916;-73
2023/12/27 14:04:57;;;;;;;31.80;14.10;;;;;;;;;;104055;1291;544813;-71
2023/12/27 14:08:38;;;;;;;27.90;13.70;;;;;;;;;;103851;1292;545524;-71
2023/12/27 14:12:17;;;;;;;35.20;17.30;;;;;;;;;;103925;1289;545116;-73
2023/12/27 14:15:49;;;;;;;35.80;18.80;;;;;;;;;;104215;1287;545328;-71
2023/12/27 14:19:31;;;;;;;45.30;28.40;;;;;;;;;;103612;1292;545434;-73
2023/12/27 14:23:08;;;;;;;150.10;128.90;;;;;;;;;;103579;1297;544898;-72
2023/12/27 14:26:51;;;;;;;120.20;106.90;;;;;;;;;;103379;1293;545549;-73
2023/12/27 14:30:23;;;;;;;81.90;57.80;;;;;;;;;;103608;1292;545860;-73
2023/12/27 14:34:03;;;;;;;42.30;25.10;;;;;;;;;;104271;1286;545576;-73
2023/12/27 14:37:38;;;;;;;67.60;35.60;;;;;;;;;;103778;1289;545243;-73
2023/12/27 14:41:16;;;;;;;73.50;35.90;;;;;;;;;;103622;1295;545085;-73
2023/12/27 14:44:53;;;;;;;70.80;36.60;;;;;;;;;;104174;1289;544852;-72
2023/12/27 14:48:32;;;;;;;115.70;67.50;;;;;;;;;;103625;1292;544804;-73
2023/12/27 14:52:08;;;;;;;176.30;131.80;;;;;;;;;;103787;1305;544836;-73
2023/12/27 14:55:45;;;;;;;115.00;59.20;;;;;;;;;;104188;1285;545025;-72
2023/12/27 14:59:22;;;;;;;106.90;53.30;;;;;;;;;;103922;1288;544873;-72
2023/12/27 15:03:00;;;;;;;111.70;60.10;;;;;;;;;;103959;1292;544871;-72
2023/12/27 15:06:39;;;;;;;102.90;49.20;;;;;;;;;;104052;1285;544832;-73
2023/12/27 15:10:15;;;;;;;98.20;46.90;;;;;;;;;;103544;1295;544951;-72
2023/12/27 15:13:54;;;;;;;68.60;35.70;;;;;;;;;;104466;1283;545323;-72
2023/12/27 15:17:31;;;;;;;53.50;29.10;;;;;;;;;;103608;1291;544892;-73
2023/12/27 15:21:14;;;;;;;52.50;29.50;;;;;;;;;;103584;1294;544831;-73
2023/12/27 15:24:45;;;;;;;53.60;30.70;;;;;;;;;;103772;1292;545190;-73
2023/12/27 15:28:24;;;;;;;48.40;26.00;;;;;;;;;;103523;1292;545187;-72
2023/12/27 15:32:00;;;;;;;44.20;24.00;;;;;;;;;;103786;1302;545043;-73
2023/12/27 15:35:38;;;;;;;47.10;23.80;;;;;;;;;;103876;1289;545221;-72
2023/12/27 15:39:15;;;;;;;54.80;28.00;;;;;;;;;;104467;1283;544939;-72
2023/12/27 15:42:52;;;;;;;73.80;38.80;;;;;;;;;;103574;1295;544997;-73
2023/12/27 15:46:30;;;;;;;82.70;41.90;;;;;;;;;;103870;1289;544847;-72
2023/12/27 15:50:08;;;;;;;91.90;49.00;;;;;;;;;;103580;1292;544898;-73
2023/12/27 15:53:45;;;;;;;92.70;48.10;;;;;;;;;;103643;1292;545478;-73
2023/12/27 15:57:23;;;;;;;95.90;50.60;;;;;;;;;;103681;1292;544898;-71
2023/12/27 16:01:05;;;;;;;96.20;49.10;;;;;;;;;;104015;1286;545007;-72
2023/12/27 16:04:37;;;;;;;103.40;48.50;;;;;;;;;;104578;1283;544839;-72
2023/12/27 16:08:15;;;;;;;100.70;47.40;;;;;;;;;;103841;1288;545013;-72
2023/12/27 16:11:52;;;;;;;85.60;44.20;;;;;;;;;;103710;1294;544985;-72
2023/12/27 16:15:30;;;;;;;94.40;45.10;;;;;;;;;;103853;1295;545011;-72
2023/12/27 16:19:07;;;;;;;77.50;41.10;;;;;;;;;;103594;1292;545546;-73
2023/12/27 16:22:41;;;;;;;77.20;41.10;;;;;;;;;;104009;1292;544899;-73
2023/12/27 16:26:22;;;;;;;68.00;35.30;;;;;;;;;;103774;1290;545234;-72
2023/12/27 16:29:59;;;;;;;60.30;32.70;;;;;;;;;;103518;1293;546070;-73
2023/12/27 16:33:37;;;;;;;61.30;34.00;;;;;;;;;;103770;1292;545324;-73
2023/12/27 16:37:14;;;;;;;69.60;36.40;;;;;;;;;;104376;1284;544905;-72
2023/12/27 16:40:52;;;;;;;71.60;35.70;;;;;;;;;;103730;1292;545102;-73
2023/12/27 16:44:30;;;;;;;59.50;31.60;;;;;;;;;;103779;1289;545420;-73
2023/12/27 16:48:06;;;;;;;63.50;33.90;;;;;;;;;;103578;1291;544936;-73
2023/12/27 16:51:43;;;;;;;66.00;35.50;;;;;;;;;;103982;1305;545068;-72
2023/12/27 16:55:21;;;;;;;72.60;40.60;;;;;;;;;;103803;1293;545337;-73
2023/12/27 16:58:58;;;;;;;64.10;36.20;;;;;;;;;;104095;1289;545339;-72
2023/12/27 17:02:36;;;;;;;58.80;33.70;;;;;;;;;;103881;1302;545140;-73
2023/12/27 17:06:10;;;;;;;53.10;32.10;;;;;;;;;;103787;1291;544822;-73
2023/12/27 17:09:51;;;;;;;47.50;28.30;;;;;;;;;;103538;1293;544851;-72
2023/12/27 17:13:28;;;;;;;46.10;26.70;;;;;;;;;;103977;1295;545114;-72
2023/12/27 17:17:07;;;;;;;65.20;34.20;;;;;;;;;;103628;1292;545137;-72
2023/12/27 17:20:44;;;;;;;74.90;40.70;;;;;;;;;;103467;1292;545030;-73
2023/12/27 17:24:24;;;;;;;78.00;40.30;;;;;;;;;;103719;1292;545858;-73
2023/12/27 17:27:59;;;;;;;69.00;36.10;;;;;;;;;;103927;1288;546350;-72
2023/12/27 17:31:32;;;;;;;64.70;32.80;;;;;;;;;;103827;1292;545892;-72
2023/12/27 17:35:14;;;;;;;48.20;26.40;;;;;;;;;;103924;1289;546146;-73
2023/12/27 17:38:51;;;;;;;45.60;24.60;;;;;;;;;;103577;1292;545148;-72
2023/12/27 17:42:24;;;;;;;52.00;27.20;;;;;;;;;;104018;1292;545133;-72
2023/12/27 17:46:06;;;;;;;56.30;27.60;;;;;;;;;;103911;1289;545569;-72
2023/12/27 17:49:39;;;;;;;44.60;25.70;;;;;;;;;;104252;1285;545017;-73
2023/12/27 17:53:22;;;;;;;34.10;21.10;;;;;;;;;;103750;1291;545206;-72
2023/12/27 17:56:58;;;;;;;37.10;22.00;;;;;;;;;;103794;1291;544924;-73
2023/12/27 18:00:36;;;;;;;42.60;22.80;;;;;;;;;;103828;1291;544938;-73
2023/12/27 18:04:14;;;;;;;32.80;20.50;;;;;;;;;;103785;1300;545105;-72
2023/12/27 18:07:51;;;;;;;37.90;19.90;;;;;;;;;;103619;1292;545381;-73
2023/12/27 18:11:29;;;;;;;39.10;20.60;;;;;;;;;;103615;1305;545784;-72
2023/12/27 18:15:06;;;;;;;40.50;19.40;;;;;;;;;;104216;1286;544967;-72
2023/12/27 18:18:43;;;;;;;32.20;17.20;;;;;;;;;;103813;1291;545475;-72
2023/12/27 18:22:20;;;;;;;27.00;13.70;;;;;;;;;;103568;1292;545087;-72
2023/12/27 18:25:58;;;;;;;27.20;15.20;;;;;;;;;;103869;1291;545531;-72
2023/12/27 18:29:38;;;;;;;35.10;16.60;;;;;;;;;;103891;1289;545516;-73
2023/12/27 18:33:13;;;;;;;23.80;13.70;;;;;;;;;;103628;1292;544991;-72
2023/12/27 18:36:50;;;;;;;30.80;15.20;;;;;;;;;;103531;1291;545053;-73
2023/12/27 18:40:24;;;;;;;42.20;20.70;;;;;;;;;;103849;1305;544982;-72
2023/12/27 18:44:05;;;;;;;36.80;18.00;;;;;;;;;;104120;1286;545357;-73
2023/12/27 18:47:44;;;;;;;29.60;14.80;;;;;;;;;;103612;1292;545150;-73
2023/12/27 18:51:16;;;;;;;22.60;11.90;;;;;;;;;;104093;1292;546143;-72
2023/12/27 18:54:58;;;;;;;22.00;10.40;;;;;;;;;;103932;1289;545086;-72
2023/12/27 18:58:36;;;;;;;20.60;9.80;;;;;;;;;;103435;1293;545367;-72
2023/12/27 19:02:13;;;;;;;19.30;10.00;;;;;;;;;;103411;1297;545252;-72
2023/12/27 19:05:51;;;;;;;21.60;10.80;;;;;;;;;;103843;1289;545120;-72
2023/12/27 19:09:28;;;;;;;23.90;11.80;;;;;;;;;;103619;1292;545507;-72
2023/12/27 19:13:04;;;;;;;27.90;13.10;;;;;;;;;;103842;1292;546086;-72
2023/12/27 19:16:44;;;;;;;28.80;13.60;;;;;;;;;;104684;1283;545484;-72
2023/12/27 19:20:20;;;;;;;32.50;16.30;;;;;;;;;;103651;1292;545352;-72
2023/12/27 19:23:57;;;;;;;31.90;16.00;;;;;;;;;;103589;1302;545081;-73
2023/12/27 19:27:36;;;;;;;35.50;18.00;;;;;;;;;;103566;1292;544885;-73
2023/12/27 19:31:12;;;;;;;40.50;20.70;;;;;;;;;;104077;1286;545119;-73
2023/12/27 19:34:47;;;;;;;39.30;20.50;;;;;;;;;;103891;1289;545734;-72
2023/12/27 19:38:29;;;;;;;31.00;15.60;;;;;;;;;;103863;1294;545063;-72
2023/12/27 19:42:02;;;;;;;30.10;14.50;;;;;;;;;;103853;1292;545462;-73
2023/12/27 19:45:42;;;;;;;26.60;14.00;;;;;;;;;;103637;1295;545570;-72
2023/12/27 19:49:19;;;;;;;30.10;15.30;;;;;;;;;;103921;1288;544529;-72
2023/12/27 19:52:58;;;;;;;30.90;15.20;;;;;;;;;;103621;1292;545654;-72
2023/12/27 19:56:34;;;;;;;28.50;13.40;;;;;;;;;;103636;1292;544887;-72
2023/12/27 20:00:13;;;;;;;24.70;11.30;;;;;;;;;;103743;1294;545237;-73
2023/12/27 20:03:46;;;;;;;25.20;10.50;;;;;;;;;;104041;1291;545185;-73
2023/12/27 20:07:27;;;;;;;19.70;8.90;;;;;;;;;;103758;1289;545041;-73
2023/12/27 20:11:05;;;;;;;17.60;8.60;;;;;;;;;;103912;1292;545198;-73
2023/12/27 20:14:42;;;;;;;18.70;8.70;;;;;;;;;;103552;1294;545687;-73
2023/12/27 20:18:20;;;;;;;17.60;8.80;;;;;;;;;;103911;1289;545660;-73
2023/12/27 20:21:53;;;;;;;18.40;8.60;;;;;;;;;;103772;1291;544874;-73
2023/12/27 20:25:34;;;;;;;19.70;9.20;;;;;;;;;;103633;1292;545062;-73
2023/12/27 20:29:12;;;;;;;17.60;9.30;;;;;;;;;;104165;1291;545755;-73
2023/12/27 20:32:51;;;;;;;17.20;8.10;;;;;;;;;;103819;1292;545028;-73
2023/12/27 20:36:27;;;;;;;16.90;7.50;;;;;;;;;;103766;1292;545075;-73
2023/12/27 20:40:05;;;;;;;15.20;7.00;;;;;;;;;;103633;1292;545017;-73
2023/12/27 20:43:42;;;;;;;13.50;6.10;;;;;;;;;;103576;1294;545028;-75
2023/12/27 20:47:19;;;;;;;14.60;6.70;;;;;;;;;;103798;1297;545188;-74